sensor_id;sensor_type;location;lat;lon;timestamp;P1;durP1;ratioP1;P2;durP2;ratioP2
76417;SDS011;65250;47.602;19.002;2022-12-01T00:00:09;24.90;;;11.17;;
76417;SDS011;65250;47.602;19.002;2022-12-01T00:02:38;18.73;;;10.80;;
76417;SDS011;65250;47.602;19.002;2022-12-01T00:05:05;19.42;;;10.50;;
76417;SDS011;65250;47.602;19.002;2022-12-01T00:07:32;19.45;;;10.45;;
76417;SDS011;65250;47.602;19.002;2022-12-01T00:09:59;20.90;;;10.13;;
76417;SDS011;65250;47.602;19.002;2022-12-01T00:12:44;17.57;;;9.53;;
76417;SDS011;65250;47.602;19.002;2022-12-01T00:15:11;17.83;;;9.57;;
76417;SDS011;65250;47.602;19.002;2022-12-01T00:17:38;17.80;;;9.18;;
76417;SDS011;65250;47.602;19.002;2022-12-01T00:20:05;15.95;;;8.80;;
76417;SDS011;65250;47.602;19.002;2022-12-01T00:22:32;14.77;;;8.13;;
76417;SDS011;65250;47.602;19.002;2022-12-01T00:24:59;14.17;;;7.70;;
76417;SDS011;65250;47.602;19.002;2022-12-01T00:27:25;16.20;;;8.25;;
76417;SDS011;65250;47.602;19.002;2022-12-01T00:29:52;13.32;;;7.15;;
76417;SDS011;65250;47.602;19.002;2022-12-01T00:32:19;15.55;;;7.22;;
76417;SDS011;65250;47.602;19.002;2022-12-01T00:34:45;14.48;;;7.00;;
76417;SDS011;65250;47.602;19.002;2022-12-01T00:37:12;13.87;;;6.03;;
76417;SDS011;65250;47.602;19.002;2022-12-01T00:39:39;9.45;;;5.85;;
76417;SDS011;65250;47.602;19.002;2022-12-01T00:42:06;12.55;;;7.38;;
76417;SDS011;65250;47.602;19.002;2022-12-01T00:44:38;12.75;;;6.68;;
76417;SDS011;65250;47.602;19.002;2022-12-01T00:47:05;14.52;;;7.25;;
76417;SDS011;65250;47.602;19.002;2022-12-01T00:49:32;12.60;;;6.50;;
76417;SDS011;65250;47.602;19.002;2022-12-01T00:51:58;14.57;;;7.28;;
76417;SDS011;65250;47.602;19.002;2022-12-01T00:54:25;15.18;;;8.05;;
76417;SDS011;65250;47.602;19.002;2022-12-01T00:56:52;15.45;;;8.30;;
76417;SDS011;65250;47.602;19.002;2022-12-01T00:59:18;18.17;;;8.63;;
76417;SDS011;65250;47.602;19.002;2022-12-01T01:01:45;15.97;;;7.33;;
76417;SDS011;65250;47.602;19.002;2022-12-01T01:04:12;16.80;;;8.10;;
76417;SDS011;65250;47.602;19.002;2022-12-01T01:06:39;14.20;;;7.80;;
76417;SDS011;65250;47.602;19.002;2022-12-01T01:09:09;15.65;;;7.40;;
76417;SDS011;65250;47.602;19.002;2022-12-01T01:11:36;17.17;;;8.48;;
76417;SDS011;65250;47.602;19.002;2022-12-01T01:14:02;15.17;;;8.40;;
76417;SDS011;65250;47.602;19.002;2022-12-01T01:16:29;19.98;;;8.27;;
76417;SDS011;65250;47.602;19.002;2022-12-01T01:18:56;15.38;;;7.93;;
76417;SDS011;65250;47.602;19.002;2022-12-01T01:21:24;17.90;;;8.05;;
76417;SDS011;65250;47.602;19.002;2022-12-01T01:23:51;15.88;;;7.82;;
76417;SDS011;65250;47.602;19.002;2022-12-01T01:26:26;15.17;;;7.53;;
76417;SDS011;65250;47.602;19.002;2022-12-01T01:28:59;16.52;;;8.00;;
76417;SDS011;65250;47.602;19.002;2022-12-01T01:31:28;17.10;;;8.25;;
76417;SDS011;65250;47.602;19.002;2022-12-01T01:33:56;14.80;;;7.35;;
76417;SDS011;65250;47.602;19.002;2022-12-01T01:36:23;13.27;;;6.90;;
76417;SDS011;65250;47.602;19.002;2022-12-01T01:38:50;13.70;;;7.20;;
76417;SDS011;65250;47.602;19.002;2022-12-01T01:41:18;13.70;;;7.35;;
76417;SDS011;65250;47.602;19.002;2022-12-01T01:43:47;13.85;;;6.82;;
76417;SDS011;65250;47.602;19.002;2022-12-01T01:46:19;14.45;;;7.93;;
76417;SDS011;65250;47.602;19.002;2022-12-01T01:49:12;15.43;;;7.40;;
76417;SDS011;65250;47.602;19.002;2022-12-01T01:51:48;15.77;;;7.43;;
76417;SDS011;65250;47.602;19.002;2022-12-01T01:54:19;15.82;;;7.43;;
76417;SDS011;65250;47.602;19.002;2022-12-01T01:56:48;17.35;;;7.65;;
76417;SDS011;65250;47.602;19.002;2022-12-01T01:59:18;18.13;;;7.55;;
76417;SDS011;65250;47.602;19.002;2022-12-01T02:01:47;15.90;;;7.55;;
76417;SDS011;65250;47.602;19.002;2022-12-01T02:04:18;15.27;;;7.63;;
76417;SDS011;65250;47.602;19.002;2022-12-01T02:06:45;13.40;;;7.40;;
76417;SDS011;65250;47.602;19.002;2022-12-01T02:09:12;17.75;;;8.10;;
76417;SDS011;65250;47.602;19.002;2022-12-01T02:17:51;18.00;;;7.50;;
76417;SDS011;65250;47.602;19.002;2022-12-01T02:20:29;15.07;;;7.75;;
76417;SDS011;65250;47.602;19.002;2022-12-01T02:28:56;16.75;;;7.88;;
76417;SDS011;65250;47.602;19.002;2022-12-01T02:34:28;16.90;;;7.47;;
76417;SDS011;65250;47.602;19.002;2022-12-01T02:37:04;12.20;;;6.75;;
76417;SDS011;65250;47.602;19.002;2022-12-01T02:39:43;15.23;;;6.78;;
76417;SDS011;65250;47.602;19.002;2022-12-01T02:42:21;16.92;;;7.13;;
76417;SDS011;65250;47.602;19.002;2022-12-01T02:45:15;15.67;;;7.07;;
76417;SDS011;65250;47.602;19.002;2022-12-01T02:47:55;13.15;;;6.43;;
76417;SDS011;65250;47.602;19.002;2022-12-01T02:50:22;14.43;;;6.88;;
76417;SDS011;65250;47.602;19.002;2022-12-01T02:52:50;17.30;;;6.82;;
76417;SDS011;65250;47.602;19.002;2022-12-01T02:55:19;12.88;;;6.47;;
76417;SDS011;65250;47.602;19.002;2022-12-01T02:57:45;13.23;;;6.70;;
76417;SDS011;65250;47.602;19.002;2022-12-01T03:00:12;13.77;;;6.15;;
76417;SDS011;65250;47.602;19.002;2022-12-01T03:02:57;12.48;;;6.57;;
76417;SDS011;65250;47.602;19.002;2022-12-01T03:05:50;12.93;;;6.80;;
76417;SDS011;65250;47.602;19.002;2022-12-01T03:08:43;14.20;;;5.53;;
76417;SDS011;65250;47.602;19.002;2022-12-01T03:11:17;11.33;;;6.03;;
76417;SDS011;65250;47.602;19.002;2022-12-01T03:16:26;14.20;;;6.47;;
76417;SDS011;65250;47.602;19.002;2022-12-01T03:19:30;14.55;;;6.05;;
76417;SDS011;65250;47.602;19.002;2022-12-01T03:22:06;17.20;;;6.10;;
76417;SDS011;65250;47.602;19.002;2022-12-01T03:24:35;11.93;;;5.80;;
76417;SDS011;65250;47.602;19.002;2022-12-01T03:27:03;13.38;;;6.53;;
76417;SDS011;65250;47.602;19.002;2022-12-01T03:37:30;11.25;;;5.80;;
76417;SDS011;65250;47.602;19.002;2022-12-01T03:40:01;12.43;;;5.85;;
76417;SDS011;65250;47.602;19.002;2022-12-01T03:42:35;16.30;;;6.60;;
76417;SDS011;65250;47.602;19.002;2022-12-01T03:45:06;14.75;;;6.45;;
76417;SDS011;65250;47.602;19.002;2022-12-01T03:47:35;13.60;;;6.07;;
76417;SDS011;65250;47.602;19.002;2022-12-01T03:50:05;15.93;;;6.50;;
76417;SDS011;65250;47.602;19.002;2022-12-01T03:52:47;15.77;;;6.68;;
76417;SDS011;65250;47.602;19.002;2022-12-01T03:55:20;13.60;;;6.28;;
76417;SDS011;65250;47.602;19.002;2022-12-01T04:00:38;14.60;;;6.38;;
76417;SDS011;65250;47.602;19.002;2022-12-01T04:03:06;15.27;;;7.00;;
76417;SDS011;65250;47.602;19.002;2022-12-01T04:05:33;14.52;;;7.18;;
76417;SDS011;65250;47.602;19.002;2022-12-01T04:08:00;13.90;;;6.22;;
76417;SDS011;65250;47.602;19.002;2022-12-01T04:10:27;14.15;;;6.20;;
76417;SDS011;65250;47.602;19.002;2022-12-01T04:12:54;14.30;;;6.35;;
76417;SDS011;65250;47.602;19.002;2022-12-01T04:15:25;13.70;;;6.28;;
76417;SDS011;65250;47.602;19.002;2022-12-01T04:17:52;13.85;;;6.30;;
76417;SDS011;65250;47.602;19.002;2022-12-01T04:20:19;10.80;;;5.70;;
76417;SDS011;65250;47.602;19.002;2022-12-01T04:22:46;11.32;;;5.72;;
76417;SDS011;65250;47.602;19.002;2022-12-01T04:25:13;11.52;;;5.38;;
76417;SDS011;65250;47.602;19.002;2022-12-01T04:27:40;12.35;;;5.25;;
76417;SDS011;65250;47.602;19.002;2022-12-01T04:30:07;12.35;;;5.63;;
76417;SDS011;65250;47.602;19.002;2022-12-01T04:32:38;12.57;;;6.07;;
76417;SDS011;65250;47.602;19.002;2022-12-01T04:35:06;15.13;;;6.82;;
76417;SDS011;65250;47.602;19.002;2022-12-01T04:37:34;13.55;;;5.95;;
76417;SDS011;65250;47.602;19.002;2022-12-01T04:40:02;14.02;;;6.13;;
76417;SDS011;65250;47.602;19.002;2022-12-01T04:42:29;16.30;;;6.88;;
76417;SDS011;65250;47.602;19.002;2022-12-01T04:44:55;13.30;;;5.60;;
76417;SDS011;65250;47.602;19.002;2022-12-01T04:47:22;11.80;;;5.35;;
76417;SDS011;65250;47.602;19.002;2022-12-01T04:49:49;11.27;;;5.47;;
76417;SDS011;65250;47.602;19.002;2022-12-01T04:52:16;14.57;;;5.80;;
76417;SDS011;65250;47.602;19.002;2022-12-01T04:54:43;12.27;;;5.85;;
76417;SDS011;65250;47.602;19.002;2022-12-01T04:57:10;17.98;;;7.63;;
76417;SDS011;65250;47.602;19.002;2022-12-01T04:59:36;15.55;;;6.88;;
76417;SDS011;65250;47.602;19.002;2022-12-01T05:02:03;13.75;;;5.88;;
76417;SDS011;65250;47.602;19.002;2022-12-01T05:04:30;11.68;;;5.28;;
76417;SDS011;65250;47.602;19.002;2022-12-01T05:06:59;12.90;;;5.80;;
76417;SDS011;65250;47.602;19.002;2022-12-01T05:09:25;16.52;;;6.85;;
76417;SDS011;65250;47.602;19.002;2022-12-01T05:11:52;15.30;;;5.88;;
76417;SDS011;65250;47.602;19.002;2022-12-01T05:14:19;11.88;;;5.80;;
76417;SDS011;65250;47.602;19.002;2022-12-01T05:16:46;15.33;;;6.50;;
76417;SDS011;65250;47.602;19.002;2022-12-01T05:19:12;16.25;;;6.95;;
76417;SDS011;65250;47.602;19.002;2022-12-01T05:21:57;14.25;;;6.28;;
76417;SDS011;65250;47.602;19.002;2022-12-01T05:24:24;14.77;;;6.32;;
76417;SDS011;65250;47.602;19.002;2022-12-01T05:26:51;16.85;;;6.60;;
76417;SDS011;65250;47.602;19.002;2022-12-01T05:29:17;19.25;;;7.70;;
76417;SDS011;65250;47.602;19.002;2022-12-01T05:31:44;15.25;;;6.95;;
76417;SDS011;65250;47.602;19.002;2022-12-01T05:34:12;17.80;;;7.05;;
76417;SDS011;65250;47.602;19.002;2022-12-01T05:36:39;13.43;;;6.53;;
76417;SDS011;65250;47.602;19.002;2022-12-01T05:39:06;19.13;;;7.22;;
76417;SDS011;65250;47.602;19.002;2022-12-01T05:41:32;17.10;;;6.90;;
76417;SDS011;65250;47.602;19.002;2022-12-01T05:44:14;19.13;;;6.28;;
76417;SDS011;65250;47.602;19.002;2022-12-01T06:54:09;15.13;;;6.18;;
76417;SDS011;65250;47.602;19.002;2022-12-01T06:56:36;17.00;;;7.05;;
76417;SDS011;65250;47.602;19.002;2022-12-01T06:59:03;21.30;;;7.20;;
76417;SDS011;65250;47.602;19.002;2022-12-01T07:01:30;14.30;;;6.45;;
76417;SDS011;65250;47.602;19.002;2022-12-01T07:03:57;15.50;;;6.70;;
76417;SDS011;65250;47.602;19.002;2022-12-01T07:06:24;16.70;;;7.45;;
76417;SDS011;65250;47.602;19.002;2022-12-01T07:08:51;14.90;;;6.50;;
76417;SDS011;65250;47.602;19.002;2022-12-01T07:11:18;17.42;;;6.97;;
76417;SDS011;65250;47.602;19.002;2022-12-01T07:13:45;14.57;;;6.90;;
76417;SDS011;65250;47.602;19.002;2022-12-01T07:16:11;14.27;;;6.85;;
76417;SDS011;65250;47.602;19.002;2022-12-01T07:18:38;13.48;;;6.55;;
76417;SDS011;65250;47.602;19.002;2022-12-01T07:21:09;16.27;;;7.17;;
76417;SDS011;65250;47.602;19.002;2022-12-01T07:23:41;19.90;;;7.38;;
76417;SDS011;65250;47.602;19.002;2022-12-01T07:26:15;22.52;;;8.13;;
76417;SDS011;65250;47.602;19.002;2022-12-01T07:28:43;24.73;;;9.80;;
76417;SDS011;65250;47.602;19.002;2022-12-01T07:31:11;21.45;;;9.43;;
76417;SDS011;65250;47.602;19.002;2022-12-01T07:33:39;33.20;;;14.50;;
76417;SDS011;65250;47.602;19.002;2022-12-01T07:36:06;27.38;;;11.98;;
76417;SDS011;65250;47.602;19.002;2022-12-01T07:38:38;30.88;;;11.32;;
76417;SDS011;65250;47.602;19.002;2022-12-01T07:41:10;22.75;;;12.10;;
76417;SDS011;65250;47.602;19.002;2022-12-01T07:43:47;24.83;;;11.85;;
76417;SDS011;65250;47.602;19.002;2022-12-01T07:46:17;32.03;;;11.70;;
76417;SDS011;65250;47.602;19.002;2022-12-01T07:48:49;24.00;;;11.82;;
76417;SDS011;65250;47.602;19.002;2022-12-01T07:51:17;30.55;;;11.45;;
76417;SDS011;65250;47.602;19.002;2022-12-01T07:53:46;32.70;;;12.93;;
76417;SDS011;65250;47.602;19.002;2022-12-01T07:56:14;27.30;;;13.38;;
76417;SDS011;65250;47.602;19.002;2022-12-01T07:58:42;29.93;;;14.07;;
76417;SDS011;65250;47.602;19.002;2022-12-01T08:01:13;39.03;;;13.32;;
76417;SDS011;65250;47.602;19.002;2022-12-01T08:03:41;26.52;;;13.70;;
76417;SDS011;65250;47.602;19.002;2022-12-01T08:06:08;28.25;;;13.50;;
76417;SDS011;65250;47.602;19.002;2022-12-01T08:08:37;30.77;;;15.00;;
76417;SDS011;65250;47.602;19.002;2022-12-01T08:11:10;31.37;;;15.67;;
76417;SDS011;65250;47.602;19.002;2022-12-01T08:13:45;30.75;;;15.43;;
76417;SDS011;65250;47.602;19.002;2022-12-01T08:16:13;30.17;;;16.60;;
76417;SDS011;65250;47.602;19.002;2022-12-01T08:18:46;33.08;;;16.15;;
76417;SDS011;65250;47.602;19.002;2022-12-01T08:21:14;33.05;;;16.80;;
76417;SDS011;65250;47.602;19.002;2022-12-01T08:23:42;38.57;;;18.93;;
76417;SDS011;65250;47.602;19.002;2022-12-01T08:26:13;35.55;;;19.23;;
76417;SDS011;65250;47.602;19.002;2022-12-01T08:28:41;39.78;;;18.55;;
76417;SDS011;65250;47.602;19.002;2022-12-01T08:31:16;45.78;;;18.92;;
76417;SDS011;65250;47.602;19.002;2022-12-01T08:33:46;41.47;;;18.20;;
76417;SDS011;65250;47.602;19.002;2022-12-01T08:36:18;33.07;;;16.60;;
76417;SDS011;65250;47.602;19.002;2022-12-01T08:38:47;32.22;;;15.10;;
76417;SDS011;65250;47.602;19.002;2022-12-01T08:41:15;32.80;;;15.77;;
76417;SDS011;65250;47.602;19.002;2022-12-01T08:43:42;38.88;;;15.05;;
76417;SDS011;65250;47.602;19.002;2022-12-01T08:46:30;21.52;;;12.82;;
76417;SDS011;65250;47.602;19.002;2022-12-01T08:48:58;24.83;;;11.77;;
76417;SDS011;65250;47.602;19.002;2022-12-01T08:51:26;19.90;;;10.88;;
76417;SDS011;65250;47.602;19.002;2022-12-01T08:53:54;20.50;;;9.88;;
76417;SDS011;65250;47.602;19.002;2022-12-01T08:56:26;23.58;;;11.02;;
76417;SDS011;65250;47.602;19.002;2022-12-01T08:58:55;17.23;;;10.07;;
76417;SDS011;65250;47.602;19.002;2022-12-01T09:01:22;20.17;;;10.93;;
76417;SDS011;65250;47.602;19.002;2022-12-01T09:03:51;21.35;;;12.70;;
76417;SDS011;65250;47.602;19.002;2022-12-01T09:06:37;22.10;;;13.60;;
76417;SDS011;65250;47.602;19.002;2022-12-01T09:09:09;29.55;;;15.15;;
76417;SDS011;65250;47.602;19.002;2022-12-01T09:11:39;23.83;;;14.80;;
76417;SDS011;65250;47.602;19.002;2022-12-01T09:14:06;24.77;;;14.00;;
76417;SDS011;65250;47.602;19.002;2022-12-01T09:16:33;26.40;;;14.73;;
76417;SDS011;65250;47.602;19.002;2022-12-01T09:19:00;23.30;;;14.35;;
76417;SDS011;65250;47.602;19.002;2022-12-01T09:21:28;22.45;;;12.95;;
76417;SDS011;65250;47.602;19.002;2022-12-01T09:23:56;22.90;;;12.38;;
76417;SDS011;65250;47.602;19.002;2022-12-01T09:26:29;19.73;;;12.33;;
76417;SDS011;65250;47.602;19.002;2022-12-01T09:28:58;21.88;;;10.52;;
76417;SDS011;65250;47.602;19.002;2022-12-01T09:31:29;15.50;;;9.70;;
76417;SDS011;65250;47.602;19.002;2022-12-01T09:33:58;15.77;;;9.65;;
76417;SDS011;65250;47.602;19.002;2022-12-01T09:36:26;13.77;;;8.25;;
76417;SDS011;65250;47.602;19.002;2022-12-01T09:38:55;12.90;;;7.90;;
76417;SDS011;65250;47.602;19.002;2022-12-01T09:46:33;11.35;;;7.55;;
76417;SDS011;65250;47.602;19.002;2022-12-01T09:49:03;11.63;;;7.10;;
76417;SDS011;65250;47.602;19.002;2022-12-01T09:51:32;13.20;;;7.27;;
76417;SDS011;65250;47.602;19.002;2022-12-01T09:54:01;10.38;;;7.05;;
76417;SDS011;65250;47.602;19.002;2022-12-01T09:56:29;11.35;;;6.80;;
76417;SDS011;65250;47.602;19.002;2022-12-01T09:58:58;10.43;;;6.88;;
76417;SDS011;65250;47.602;19.002;2022-12-01T10:01:33;10.10;;;5.93;;
76417;SDS011;65250;47.602;19.002;2022-12-01T10:04:07;9.67;;;6.23;;
76417;SDS011;65250;47.602;19.002;2022-12-01T10:06:39;10.50;;;4.82;;
76417;SDS011;65250;47.602;19.002;2022-12-01T10:12:10;7.30;;;3.90;;
76417;SDS011;65250;47.602;19.002;2022-12-01T10:14:42;8.20;;;4.15;;
76417;SDS011;65250;47.602;19.002;2022-12-01T10:30:30;7.20;;;4.73;;
76417;SDS011;65250;47.602;19.002;2022-12-01T10:33:26;7.72;;;5.57;;
76417;SDS011;65250;47.602;19.002;2022-12-01T10:35:53;8.07;;;4.93;;
76417;SDS011;65250;47.602;19.002;2022-12-01T10:40:58;13.63;;;5.75;;
76417;SDS011;65250;47.602;19.002;2022-12-01T10:43:28;11.03;;;6.10;;
76417;SDS011;65250;47.602;19.002;2022-12-01T10:45:59;9.32;;;6.03;;
76417;SDS011;65250;47.602;19.002;2022-12-01T10:48:27;10.63;;;5.50;;
76417;SDS011;65250;47.602;19.002;2022-12-01T10:50:55;9.32;;;6.00;;
76417;SDS011;65250;47.602;19.002;2022-12-01T10:53:39;8.02;;;5.28;;
76417;SDS011;65250;47.602;19.002;2022-12-01T10:56:08;8.17;;;5.43;;
76417;SDS011;65250;47.602;19.002;2022-12-01T11:03:51;11.63;;;5.68;;
76417;SDS011;65250;47.602;19.002;2022-12-01T11:46:06;11.93;;;6.55;;
76417;SDS011;65250;47.602;19.002;2022-12-01T11:48:35;13.00;;;6.65;;
76417;SDS011;65250;47.602;19.002;2022-12-01T11:54:31;9.98;;;6.30;;
76417;SDS011;65250;47.602;19.002;2022-12-01T11:56:52;11.52;;;5.97;;
76417;SDS011;65250;47.602;19.002;2022-12-01T11:59:40;9.38;;;6.13;;
76417;SDS011;65250;47.602;19.002;2022-12-01T12:13:29;12.57;;;6.47;;
76417;SDS011;65250;47.602;19.002;2022-12-01T12:32:24;14.70;;;6.87;;
76417;SDS011;65250;47.602;19.002;2022-12-01T12:46:16;12.00;;;6.60;;
76417;SDS011;65250;47.602;19.002;2022-12-01T12:51:47;13.63;;;6.45;;
76417;SDS011;65250;47.602;19.002;2022-12-01T12:54:20;12.10;;;6.30;;
76417;SDS011;65250;47.602;19.002;2022-12-01T12:56:59;11.35;;;6.57;;
76417;SDS011;65250;47.602;19.002;2022-12-01T12:59:35;8.83;;;5.80;;
76417;SDS011;65250;47.602;19.002;2022-12-01T13:02:11;13.57;;;7.00;;
76417;SDS011;65250;47.602;19.002;2022-12-01T13:07:42;8.85;;;6.20;;
76417;SDS011;65250;47.602;19.002;2022-12-01T13:10:23;9.50;;;6.80;;
76417;SDS011;65250;47.602;19.002;2022-12-01T13:13:23;12.53;;;7.40;;
76417;SDS011;65250;47.602;19.002;2022-12-01T13:15:51;9.05;;;5.80;;
76417;SDS011;65250;47.602;19.002;2022-12-01T13:18:35;10.40;;;6.60;;
76417;SDS011;65250;47.602;19.002;2022-12-01T13:21:08;9.80;;;6.35;;
76417;SDS011;65250;47.602;19.002;2022-12-01T13:23:40;9.32;;;5.68;;
76417;SDS011;65250;47.602;19.002;2022-12-01T13:26:08;9.83;;;6.47;;
76417;SDS011;65250;47.602;19.002;2022-12-01T13:28:38;9.80;;;6.72;;
76417;SDS011;65250;47.602;19.002;2022-12-01T13:31:10;13.90;;;7.00;;
76417;SDS011;65250;47.602;19.002;2022-12-01T13:33:43;11.18;;;6.78;;
76417;SDS011;65250;47.602;19.002;2022-12-01T13:36:13;10.23;;;6.70;;
76417;SDS011;65250;47.602;19.002;2022-12-01T13:39:02;9.37;;;5.87;;
76417;SDS011;65250;47.602;19.002;2022-12-01T13:41:31;11.48;;;6.35;;
76417;SDS011;65250;47.602;19.002;2022-12-01T13:46:49;11.93;;;6.25;;
76417;SDS011;65250;47.602;19.002;2022-12-01T13:49:32;10.82;;;6.57;;
76417;SDS011;65250;47.602;19.002;2022-12-01T13:57:35;11.43;;;6.00;;
76417;SDS011;65250;47.602;19.002;2022-12-01T14:08:20;10.00;;;6.28;;
76417;SDS011;65250;47.602;19.002;2022-12-01T14:10:56;10.68;;;6.15;;
76417;SDS011;65250;47.602;19.002;2022-12-01T14:13:24;10.98;;;6.30;;
76417;SDS011;65250;47.602;19.002;2022-12-01T14:18:23;9.77;;;5.77;;
76417;SDS011;65250;47.602;19.002;2022-12-01T14:21:10;12.27;;;6.28;;
76417;SDS011;65250;47.602;19.002;2022-12-01T14:24:00;10.40;;;5.90;;
76417;SDS011;65250;47.602;19.002;2022-12-01T14:26:28;10.32;;;6.18;;
76417;SDS011;65250;47.602;19.002;2022-12-01T14:36:48;13.13;;;6.68;;
76417;SDS011;65250;47.602;19.002;2022-12-01T14:41:50;17.38;;;6.18;;
76417;SDS011;65250;47.602;19.002;2022-12-01T14:52:35;16.90;;;6.60;;
76417;SDS011;65250;47.602;19.002;2022-12-01T14:55:05;11.43;;;5.07;;
76417;SDS011;65250;47.602;19.002;2022-12-01T14:57:44;16.90;;;5.67;;
76417;SDS011;65250;47.602;19.002;2022-12-01T15:00:15;9.70;;;5.55;;
76417;SDS011;65250;47.602;19.002;2022-12-01T15:02:54;11.20;;;5.30;;
76417;SDS011;65250;47.602;19.002;2022-12-01T15:05:27;10.82;;;5.70;;
76417;SDS011;65250;47.602;19.002;2022-12-01T15:07:59;14.15;;;5.55;;
76417;SDS011;65250;47.602;19.002;2022-12-01T15:10:51;10.43;;;5.87;;
76417;SDS011;65250;47.602;19.002;2022-12-01T15:15:55;13.38;;;5.40;;
76417;SDS011;65250;47.602;19.002;2022-12-01T15:18:28;14.15;;;6.07;;
76417;SDS011;65250;47.602;19.002;2022-12-01T15:21:00;14.00;;;6.00;;
76417;SDS011;65250;47.602;19.002;2022-12-01T15:23:32;13.57;;;5.70;;
76417;SDS011;65250;47.602;19.002;2022-12-01T15:25:59;10.80;;;5.57;;
76417;SDS011;65250;47.602;19.002;2022-12-01T15:28:30;12.55;;;5.75;;
76417;SDS011;65250;47.602;19.002;2022-12-01T15:31:00;12.73;;;5.88;;
76417;SDS011;65250;47.602;19.002;2022-12-01T15:33:37;10.13;;;5.35;;
76417;SDS011;65250;47.602;19.002;2022-12-01T15:36:12;11.10;;;5.77;;
76417;SDS011;65250;47.602;19.002;2022-12-01T15:38:40;11.40;;;5.28;;
76417;SDS011;65250;47.602;19.002;2022-12-01T15:41:16;15.25;;;5.65;;
76417;SDS011;65250;47.602;19.002;2022-12-01T15:44:00;12.43;;;6.15;;
76417;SDS011;65250;47.602;19.002;2022-12-01T15:46:30;13.70;;;6.88;;
76417;SDS011;65250;47.602;19.002;2022-12-01T15:49:15;10.93;;;6.00;;
76417;SDS011;65250;47.602;19.002;2022-12-01T15:52:03;12.38;;;6.60;;
76417;SDS011;65250;47.602;19.002;2022-12-01T15:54:35;13.88;;;7.35;;
76417;SDS011;65250;47.602;19.002;2022-12-01T15:57:03;11.77;;;6.72;;
76417;SDS011;65250;47.602;19.002;2022-12-01T15:59:40;12.63;;;6.85;;
76417;SDS011;65250;47.602;19.002;2022-12-01T16:02:27;12.30;;;6.30;;
76417;SDS011;65250;47.602;19.002;2022-12-01T16:04:58;11.50;;;5.75;;
76417;SDS011;65250;47.602;19.002;2022-12-01T16:07:31;10.77;;;6.28;;
76417;SDS011;65250;47.602;19.002;2022-12-01T16:10:24;10.20;;;5.88;;
76417;SDS011;65250;47.602;19.002;2022-12-01T16:24:22;15.25;;;8.20;;
76417;SDS011;65250;47.602;19.002;2022-12-01T16:27:04;14.25;;;8.15;;
76417;SDS011;65250;47.602;19.002;2022-12-01T16:29:33;14.80;;;8.83;;
76417;SDS011;65250;47.602;19.002;2022-12-01T16:32:17;18.27;;;8.65;;
76417;SDS011;65250;47.602;19.002;2022-12-01T16:34:48;16.52;;;9.43;;
76417;SDS011;65250;47.602;19.002;2022-12-01T16:37:16;16.88;;;8.75;;
76417;SDS011;65250;47.602;19.002;2022-12-01T16:39:44;21.60;;;9.70;;
76417;SDS011;65250;47.602;19.002;2022-12-01T16:42:15;16.23;;;9.10;;
76417;SDS011;65250;47.602;19.002;2022-12-01T16:44:44;16.33;;;8.82;;
76417;SDS011;65250;47.602;19.002;2022-12-01T16:47:13;17.63;;;9.35;;
76417;SDS011;65250;47.602;19.002;2022-12-01T16:49:41;14.57;;;8.65;;
76417;SDS011;65250;47.602;19.002;2022-12-01T16:52:08;17.48;;;8.35;;
76417;SDS011;65250;47.602;19.002;2022-12-01T16:54:55;15.13;;;9.27;;
76417;SDS011;65250;47.602;19.002;2022-12-01T16:57:23;19.25;;;8.45;;
76417;SDS011;65250;47.602;19.002;2022-12-01T16:59:51;16.20;;;8.30;;
76417;SDS011;65250;47.602;19.002;2022-12-01T17:02:18;16.98;;;8.57;;
76417;SDS011;65250;47.602;19.002;2022-12-01T17:04:45;17.08;;;9.00;;
76417;SDS011;65250;47.602;19.002;2022-12-01T17:07:13;18.47;;;8.27;;
76417;SDS011;65250;47.602;19.002;2022-12-01T17:09:40;15.13;;;8.48;;
76417;SDS011;65250;47.602;19.002;2022-12-01T17:12:08;22.85;;;10.77;;
76417;SDS011;65250;47.602;19.002;2022-12-01T17:14:36;18.63;;;9.88;;
76417;SDS011;65250;47.602;19.002;2022-12-01T17:17:04;17.58;;;8.68;;
76417;SDS011;65250;47.602;19.002;2022-12-01T17:19:31;16.30;;;9.97;;
76417;SDS011;65250;47.602;19.002;2022-12-01T17:21:58;21.48;;;10.85;;
76417;SDS011;65250;47.602;19.002;2022-12-01T17:24:25;17.65;;;9.18;;
76417;SDS011;65250;47.602;19.002;2022-12-01T17:26:53;16.25;;;9.23;;
76417;SDS011;65250;47.602;19.002;2022-12-01T17:29:20;16.30;;;9.63;;
76417;SDS011;65250;47.602;19.002;2022-12-01T17:31:48;18.70;;;9.07;;
76417;SDS011;65250;47.602;19.002;2022-12-01T17:34:16;17.27;;;8.35;;
76417;SDS011;65250;47.602;19.002;2022-12-01T17:36:44;16.45;;;8.30;;
76417;SDS011;65250;47.602;19.002;2022-12-01T17:39:11;19.08;;;8.48;;
76417;SDS011;65250;47.602;19.002;2022-12-01T17:41:39;14.65;;;8.35;;
76417;SDS011;65250;47.602;19.002;2022-12-01T17:44:08;18.73;;;8.27;;
76417;SDS011;65250;47.602;19.002;2022-12-01T17:46:35;16.38;;;7.80;;
76417;SDS011;65250;47.602;19.002;2022-12-01T17:49:04;17.92;;;8.55;;
76417;SDS011;65250;47.602;19.002;2022-12-01T17:51:35;14.35;;;7.22;;
76417;SDS011;65250;47.602;19.002;2022-12-01T17:54:03;19.17;;;10.32;;
76417;SDS011;65250;47.602;19.002;2022-12-01T17:56:31;16.57;;;9.20;;
76417;SDS011;65250;47.602;19.002;2022-12-01T17:58:59;16.33;;;7.80;;
76417;SDS011;65250;47.602;19.002;2022-12-01T18:01:28;15.15;;;7.30;;
76417;SDS011;65250;47.602;19.002;2022-12-01T18:03:56;14.30;;;7.35;;
76417;SDS011;65250;47.602;19.002;2022-12-01T18:06:24;14.25;;;6.90;;
76417;SDS011;65250;47.602;19.002;2022-12-01T18:08:53;13.53;;;7.53;;
76417;SDS011;65250;47.602;19.002;2022-12-01T18:11:21;13.38;;;6.32;;
76417;SDS011;65250;47.602;19.002;2022-12-01T18:13:51;13.40;;;6.85;;
76417;SDS011;65250;47.602;19.002;2022-12-01T18:16:21;14.55;;;7.35;;
76417;SDS011;65250;47.602;19.002;2022-12-01T18:18:51;12.80;;;6.20;;
76417;SDS011;65250;47.602;19.002;2022-12-01T18:21:20;16.73;;;6.97;;
76417;SDS011;65250;47.602;19.002;2022-12-01T18:23:52;16.90;;;7.88;;
76417;SDS011;65250;47.602;19.002;2022-12-01T18:26:24;15.77;;;7.32;;
76417;SDS011;65250;47.602;19.002;2022-12-01T18:29:26;14.48;;;7.13;;
76417;SDS011;65250;47.602;19.002;2022-12-01T18:31:54;15.45;;;8.07;;
76417;SDS011;65250;47.602;19.002;2022-12-01T18:34:23;15.27;;;8.37;;
76417;SDS011;65250;47.602;19.002;2022-12-01T18:36:55;13.43;;;7.10;;
76417;SDS011;65250;47.602;19.002;2022-12-01T18:39:23;13.35;;;6.65;;
76417;SDS011;65250;47.602;19.002;2022-12-01T18:41:51;18.45;;;8.05;;
76417;SDS011;65250;47.602;19.002;2022-12-01T18:44:18;15.63;;;7.93;;
76417;SDS011;65250;47.602;19.002;2022-12-01T18:46:46;15.30;;;7.40;;
76417;SDS011;65250;47.602;19.002;2022-12-01T18:49:13;15.05;;;7.90;;
76417;SDS011;65250;47.602;19.002;2022-12-01T18:51:41;18.48;;;9.00;;
76417;SDS011;65250;47.602;19.002;2022-12-01T18:54:11;17.15;;;7.80;;
76417;SDS011;65250;47.602;19.002;2022-12-01T18:56:39;16.85;;;8.48;;
76417;SDS011;65250;47.602;19.002;2022-12-01T18:59:08;16.93;;;9.07;;
76417;SDS011;65250;47.602;19.002;2022-12-01T19:01:37;18.70;;;8.23;;
76417;SDS011;65250;47.602;19.002;2022-12-01T19:04:07;17.88;;;8.80;;
76417;SDS011;65250;47.602;19.002;2022-12-01T19:06:37;13.10;;;7.05;;